Thunder radar more information blitzortung!


Radar de pluja more information rain snow radar


Visita la nostra xarxa de llocs de meteo:

Template documentation
and downloads

And another site



No particular awareness of the weather is required.    There are no Weather-warnings

Pagina Historial Weather Underground text

Diari Resum May 30, 2016 Unitats:  Mètric    Imperial   Tant
« Previous Dia
SegĂźent Dia »
Diari Setmana Mensual Anual Personalitzada
  Maxima: Minima: Media:
Temperatura: -17.8 °C -10.7 °C -7.1 °C
Punt de rosada: -17.8 °C -13.8 °C -12.3 °C
Humitat: Humidity % 38 % 56 %
Wind Speed: 0 km/h 0 km/h 10.9 km/h
RĂ fegues de vent: 0 km/h - -
Vent:- - SE
Pression baro: 0 hPa 34293.4 hPa -
Precipitacions: 0 mm    
Historical Graphs
 
 
Dades de taula per May 30, 2016
Temps Temperatura Punt de rosada Pression baro Vent Wind Speed RĂ fegues de vent Humitat Rainfall Rate (Hourly)
-17.8 °C -17.8 °C 0 hPa Calm     Humidity % 0 mm
00:00 -10.2 °C -13.7 °C 34395 hPa Calm   2.6 km/h 66 % 0 mm
00:10 -10.2 °C -13.7 °C 34395 hPa Calm   2.6 km/h 66 % 0 mm
00:20 -10.3 °C -13.6 °C 34395 hPa NE 5.1 km/h 5.1 km/h 67 % 0 mm
00:30 -10.4 °C -13.7 °C 34395 hPa Calm   2.6 km/h 67 % 0 mm
00:40 -10.5 °C -13.8 °C 34395 hPa Calm   2.6 km/h 67 % 0 mm
00:50 -10.6 °C -13.8 °C 34395 hPa South 2.6 km/h 5.1 km/h 68 % 0 mm
01:00 -10.6 °C -13.8 °C 34395 hPa NE 2.6 km/h 5.1 km/h 68 % 0 mm
01:10 -10.5 °C -13.7 °C 34395 hPa NE 2.6 km/h 7.7 km/h 68 % 0 mm
01:20 -10.7 °C -13.8 °C 34395 hPa ENE 2.6 km/h 7.7 km/h 68 % 0 mm
01:30 -10.6 °C -13.8 °C 34395 hPa NE 5.1 km/h 7.7 km/h 68 % 0 mm
01:40 -10.6 °C -13.8 °C 34428.8 hPa NE 2.6 km/h 7.7 km/h 68 % 0 mm
01:50 -10.5 °C -13.7 °C 34428.8 hPa NNE 5.1 km/h 7.7 km/h 68 % 0 mm
02:00 -10.6 °C -13.8 °C 34428.8 hPa North 2.6 km/h 5.1 km/h 68 % 0 mm
02:10 -10.4 °C -13.7 °C 34428.8 hPa NNE 5.1 km/h 7.7 km/h 68 % 0 mm
02:20 -10.6 °C -13.8 °C 34428.8 hPa NW 2.6 km/h 7.7 km/h 68 % 0 mm
02:30 -10.6 °C -13.8 °C 34428.8 hPa Calm   5.1 km/h 68 % 0 mm
02:40 -10.5 °C -13.6 °C 34428.8 hPa Calm   5.1 km/h 69 % 0 mm
02:50 -10.2 °C -13.4 °C 34462.7 hPa WSW 5.1 km/h 7.7 km/h 68 % 0 mm
03:00 -10 °C -13.1 °C 34462.7 hPa WSW 2.6 km/h 5.1 km/h 69 % 0 mm
03:10 -9.6 °C -12.8 °C 34462.7 hPa SW 2.6 km/h 5.1 km/h 68 % 0 mm
03:20 -9.1 °C -12.6 °C 34462.7 hPa NW 5.1 km/h 5.1 km/h 66 % 0 mm
03:30 -8.7 °C -12.3 °C 34462.7 hPa NNW 5.1 km/h 5.1 km/h 65 % 0 mm
03:40 -8.3 °C -12.4 °C 34428.8 hPa NNE 7.7 km/h 7.7 km/h 62 % 0 mm
03:50 -8.4 °C -12.4 °C 34462.7 hPa NE 5.1 km/h 7.7 km/h 62 % 0 mm
04:00 -8.4 °C -12.4 °C 34462.7 hPa NE 2.6 km/h 10.3 km/h 62 % 0 mm
04:10 -8.2 °C -12.4 °C 34462.7 hPa NE 2.6 km/h 5.1 km/h 61 % 0 mm
04:20 -8.3 °C -12.6 °C 34428.8 hPa ENE 7.7 km/h 10.3 km/h 60 % 0 mm
04:30 -8.1 °C -12.6 °C 34428.8 hPa ENE 5.1 km/h 7.7 km/h 59 % 0 mm
04:40 -7.5 °C -12.2 °C 34462.7 hPa ESE 2.6 km/h 7.7 km/h 58 % 0 mm
04:50 -7.4 °C -12.2 °C 34462.7 hPa SSW 5.1 km/h 7.7 km/h 57 % 0 mm
05:00 -7.6 °C -12.6 °C 34462.7 hPa SW 12.9 km/h 12.9 km/h 56 % 0 mm
05:10 -7.1 °C -12.4 °C 34428.8 hPa ENE 2.6 km/h 10.3 km/h 54 % 0 mm
05:20 -6.9 °C -12.4 °C 34462.7 hPa NE 7.7 km/h 15.6 km/h 53 % 0 mm
05:30 -6.4 °C -12.1 °C 34462.7 hPa NE 7.7 km/h 12.9 km/h 52 % 0 mm
05:40 -6.2 °C -12.2 °C 34462.7 hPa West 7.7 km/h 15.6 km/h 50 % 0 mm
05:50 -6.5 °C -12.7 °C 34462.7 hPa WSW 7.7 km/h 10.3 km/h 49 % 0 mm
10:58 -6.4 °C -12.6 °C 34462.7 hPa SW 9 km/h 10.3 km/h 49 % 0 mm
11:03 -6.4 °C -12.6 °C 34462.7 hPa WSW 10.3 km/h 10.3 km/h 49 % 0 mm
11:08 -6.3 °C -12.4 °C 34462.7 hPa SW 26.9 km/h 26.9 km/h 49 % 0 mm
11:13 -6.1 °C -12.4 °C 34462.7 hPa SW 15 km/h 15 km/h 48 % 0 mm
11:18 -6.1 °C -12.4 °C 34428.8 hPa West 11.9 km/h 11.9 km/h 48 % 0 mm
11:28 -5.8 °C -12.2 °C 34428.8 hPa South 20.9 km/h 20.9 km/h 48 % 0 mm
11:33 -5.8 °C -12.2 °C 34428.8 hPa SW 15 km/h 15 km/h 48 % 0 mm
11:38 -6 °C -12.6 °C 34428.8 hPa WSW 17.9 km/h 17.9 km/h 47 % 0 mm
11:43 -6 °C -12.6 °C 34428.8 hPa SSW 9 km/h 9 km/h 47 % 0 mm
11:49 -6 °C -12.6 °C 34496.6 hPa SSW 8 km/h 8 km/h 47 % 0 mm
11:54 -6 °C -12.6 °C 34496.6 hPa SSE 11.9 km/h 11.9 km/h 47 % 0 mm
11:59 -6 °C -12.6 °C 34496.6 hPa South 12.2 km/h 12.2 km/h 47 % 0 mm
12:04 -6 °C -12.6 °C 34428.8 hPa SE 15 km/h 15 km/h 47 % 0 mm
12:09 -6 °C -12.6 °C 34428.8 hPa NNE 6 km/h 6 km/h 47 % 0 mm
12:14 -6 °C -12.6 °C 34428.8 hPa WSW 15 km/h 15 km/h 47 % 0 mm
12:19 -6 °C -12.6 °C 34462.7 hPa SSW 9 km/h 9 km/h 47 % 0 mm
12:24 -6 °C -12.6 °C 34462.7 hPa NNE 9 km/h 9 km/h 47 % 0 mm
12:29 -6 °C -12.6 °C 34462.7 hPa SW 17.9 km/h 17.9 km/h 47 % 0 mm
12:34 -6 °C -12.6 °C 34428.8 hPa SW 9 km/h 9 km/h 47 % 0 mm
12:39 -6 °C -12.6 °C 34428.8 hPa WNW 14.5 km/h 14.5 km/h 47 % 0 mm
12:44 -6 °C -12.6 °C 34428.8 hPa East 9.3 km/h 9.3 km/h 47 % 0 mm
12:49 -4.7 °C -12.3 °C 34428.8 hPa SW 11.9 km/h 11.9 km/h 42 % 0 mm
12:54 -4.7 °C -12.3 °C 34428.8 hPa SW 20.3 km/h 20.3 km/h 42 % 0 mm
12:59 -4.7 °C -12.3 °C 34428.8 hPa NW 9 km/h 9 km/h 42 % 0 mm
13:14 -4.9 °C -13.3 °C 34395 hPa West 20.9 km/h 20.9 km/h 38 % 0 mm
13:19 -4.8 °C -12.9 °C 34395 hPa SW 12.7 km/h 12.7 km/h 39 % 0 mm
13:24 -4.8 °C -13 °C 34395 hPa SSW 11.9 km/h 11.9 km/h 39 % 0 mm
13:29 -4.8 °C -13 °C 34395 hPa WSW 11.9 km/h 11.9 km/h 39 % 0 mm
13:34 -4.5 °C -12.7 °C 34361.1 hPa West 11.9 km/h 11.9 km/h 39 % 0 mm
13:39 -4.2 °C -12.4 °C 34361.1 hPa SSW 9 km/h 9 km/h 39 % 0 mm
13:44 -4.2 °C -12.4 °C 34361.1 hPa WNW 15 km/h 15 km/h 39 % 0 mm
13:49 -4.2 °C -12.4 °C 34361.1 hPa ENE 11.9 km/h 11.9 km/h 39 % 0 mm
13:54 -4.2 °C -12.4 °C 34361.1 hPa SW 3.1 km/h 3.1 km/h 39 % 0 mm
14:04 -4.6 °C -12.4 °C 34361.1 hPa ENE 9 km/h 9 km/h 41 % 0 mm
14:09 -4.6 °C -12.4 °C 34361.1 hPa ESE 17.9 km/h 17.9 km/h 41 % 0 mm
14:14 -5.4 °C -12.2 °C 34361.1 hPa ESE 23.8 km/h 23.8 km/h 46 % 0 mm
14:19 -5.3 °C -12.1 °C 34361.1 hPa SW 9 km/h 9 km/h 46 % 0 mm
14:24 -5.2 °C -11.8 °C 34361.1 hPa ESE 15 km/h 15 km/h 47 % 0 mm
14:29 -5.5 °C -11.9 °C 34361.1 hPa ESE 22 km/h 22 km/h 48 % 0 mm
14:34 -5.6 °C -11.8 °C 34361.1 hPa ENE 26.9 km/h 26.9 km/h 49 % 0 mm
14:39 -5.8 °C -11.8 °C 34361.1 hPa East 20.9 km/h 20.9 km/h 50 % 0 mm
14:44 -5.8 °C -11.7 °C 34361.1 hPa South 20.9 km/h 20.9 km/h 51 % 0 mm
14:49 -5.8 °C -11.6 °C 34361.1 hPa ESE 20.9 km/h 20.9 km/h 52 % 0 mm
14:54 -5.7 °C -11.4 °C 34361.1 hPa East 11.9 km/h 14 km/h 52 % 0 mm
14:59 -5.7 °C -11.4 °C 34361.1 hPa SE 26.9 km/h 26.9 km/h 52 % 0 mm
15:04 -5.7 °C -11.4 °C 34361.1 hPa SSE 20.9 km/h 20.9 km/h 52 % 0 mm
15:09 -5.4 °C -11.2 °C 34361.1 hPa ESE 26.9 km/h 26.9 km/h 52 % 0 mm
15:14 -5.7 °C -11.4 °C 34361.1 hPa ESE 26.9 km/h 26.9 km/h 52 % 0 mm
15:19 -5.7 °C -11.3 °C 34361.1 hPa ESE 26.9 km/h 26.9 km/h 53 % 0 mm
15:24 -5.7 °C -11.2 °C 34361.1 hPa ENE 20.9 km/h 20.9 km/h 53 % 0 mm
15:29 -5.7 °C -11.2 °C 34361.1 hPa SE 15 km/h 15.3 km/h 53 % 0 mm
15:34 -5.6 °C -11.3 °C 34361.1 hPa ESE 17.9 km/h 17.9 km/h 52 % 0 mm
15:39 -5.6 °C -11.3 °C 34361.1 hPa NNE 20.9 km/h 20.9 km/h 52 % 0 mm
15:44 -5.6 °C -11.3 °C 34361.1 hPa ESE 15 km/h 16.1 km/h 52 % 0 mm
15:49 -5.6 °C -11.3 °C 34361.1 hPa ESE 26.9 km/h 26.9 km/h 52 % 0 mm
15:54 -5.7 °C -11.6 °C 34361.1 hPa ESE 22.5 km/h 22.5 km/h 51 % 0 mm
15:59 -5.8 °C -11.7 °C 34361.1 hPa ENE 20.9 km/h 20.9 km/h 51 % 0 mm
16:04 -5.8 °C -11.7 °C 34327.3 hPa East 15.3 km/h 15.3 km/h 51 % 0 mm
16:09 -5.7 °C -11.6 °C 34327.3 hPa East 20.9 km/h 20.9 km/h 51 % 0 mm
16:14 -5.6 °C -11.7 °C 34327.3 hPa ENE 17.9 km/h 17.9 km/h 50 % 0 mm
16:19 -5.6 °C -11.7 °C 34327.3 hPa ENE 17.9 km/h 17.9 km/h 50 % 0 mm
16:24 -5.6 °C -11.6 °C 34327.3 hPa ESE 15.6 km/h 15.6 km/h 50 % 0 mm
16:34 -5.6 °C -11.8 °C 34327.3 hPa ENE 17.9 km/h 17.9 km/h 49 % 0 mm
16:39 -5.7 °C -11.9 °C 34327.3 hPa East 11.9 km/h 11.9 km/h 49 % 0 mm
16:44 -5.7 °C -11.9 °C 34327.3 hPa East 15 km/h 15 km/h 49 % 0 mm
16:49 -5.8 °C -12 °C 34327.3 hPa ENE 11.9 km/h 11.9 km/h 49 % 0 mm
16:54 -5.8 °C -12 °C 34327.3 hPa ESE 19.6 km/h 19.6 km/h 49 % 0 mm
16:59 -5.8 °C -12 °C 34327.3 hPa ESE 15 km/h 15 km/h 49 % 0 mm
17:04 -5.6 °C -11.8 °C 34327.3 hPa West 11.9 km/h 11.9 km/h 49 % 0 mm
17:09 -5.4 °C -11.8 °C 34327.3 hPa West 17.9 km/h 17.9 km/h 48 % 0 mm
17:14 -5 °C -11.8 °C 34327.3 hPa WSW 15 km/h 15 km/h 46 % 0 mm
17:19 -5.1 °C -11.7 °C 34327.3 hPa WSW 15.6 km/h 15.6 km/h 47 % 0 mm
17:24 -5.1 °C -11.9 °C 34327.3 hPa SSW 14 km/h 14 km/h 46 % 0 mm
17:29 -4.9 °C -11.9 °C 34327.3 hPa WSW 10.3 km/h 10.3 km/h 45 % 0 mm
17:34 -4.6 °C -12 °C 34293.4 hPa SW 29.8 km/h 29.8 km/h 43 % 0 mm
17:39 -4.6 °C -12.2 °C 34293.4 hPa WSW 15 km/h 15 km/h 42 % 0 mm
17:44 -5 °C -12.4 °C 34293.4 hPa SSE 6 km/h 6 km/h 43 % 0 mm
17:49 -4.9 °C -12.3 °C 34293.4 hPa WSW 6 km/h 6 km/h 43 % 0 mm
17:54 -4.8 °C -12.2 °C 34293.4 hPa East 14 km/h 14 km/h 43 % 0 mm
17:59 -5.1 °C -12.3 °C 34293.4 hPa SW 20.9 km/h 20.9 km/h 44 % 0 mm
18:04 -5.4 °C -12.6 °C 34327.3 hPa SW 20.9 km/h 20.9 km/h 44 % 0 mm
18:09 -5.5 °C -12.6 °C 34327.3 hPa SW 11.9 km/h 11.9 km/h 44 % 0 mm
18:19 -5.7 °C -12.8 °C 34327.3 hPa WSW 20.9 km/h 20.9 km/h 44 % 0 mm
18:24 -5.7 °C -12.6 °C 34327.3 hPa West 16.6 km/h 16.6 km/h 45 % 0 mm
18:29 -5.8 °C -12.7 °C 34327.3 hPa SW 15 km/h 15 km/h 45 % 0 mm
18:34 -5.7 °C -12.6 °C 34327.3 hPa WSW 17.9 km/h 17.9 km/h 45 % 0 mm
18:39 -5.7 °C -12.7 °C 34327.3 hPa WSW 15 km/h 15 km/h 45 % 0 mm
18:44 -5.8 °C -12.7 °C 34327.3 hPa WSW 17.9 km/h 17.9 km/h 45 % 0 mm
18:49 -5.8 °C -12.5 °C 34361.1 hPa SW 9.3 km/h 9.3 km/h 46 % 0 mm
18:54 -5.7 °C -12.4 °C 34361.1 hPa SW 12.7 km/h 12.7 km/h 46 % 0 mm
18:59 -5.7 °C -12.4 °C 34361.1 hPa SSW 11.1 km/h 11.1 km/h 46 % 0 mm
19:04 -5.8 °C -12.4 °C 34361.1 hPa SW 11.9 km/h 12.2 km/h 47 % 0 mm
19:09 -6 °C -12.6 °C 34361.1 hPa SW 9 km/h 9 km/h 47 % 0 mm
19:14 -6.1 °C -12.6 °C 34361.1 hPa SW 17.9 km/h 17.9 km/h 47 % 0 mm
19:19 -6.1 °C -12.6 °C 34361.1 hPa SW 15 km/h 15 km/h 47 % 0 mm
19:24 -6 °C -12.4 °C 34361.1 hPa SW 11.9 km/h 11.9 km/h 48 % 0 mm
19:29 -6.1 °C -12.4 °C 34361.1 hPa WSW 9 km/h 9 km/h 48 % 0 mm
19:34 -6.1 °C -12.4 °C 34395 hPa SW 6.3 km/h 6.3 km/h 48 % 0 mm
19:35 -9.2 °C -11.8 °C 34496.6 hPa East 7.7 km/h 7.7 km/h 73 % 0 mm
19:39 -6 °C -12.4 °C 34395 hPa SSW 6 km/h 6 km/h 48 % 0 mm
19:44 -6 °C -12.4 °C 34395 hPa SW 6 km/h 6 km/h 48 % 0 mm
19:45 -9.3 °C -11.9 °C 34496.6 hPa East 7.7 km/h 7.7 km/h 73 % 0 mm
19:54 -6.2 °C -12.2 °C 34361.1 hPa WSW 3.1 km/h 3.7 km/h 50 % 0 mm
19:55 -9.3 °C -11.9 °C 34496.6 hPa ENE 7.7 km/h 10.3 km/h 73 % 0 mm
19:59 -6.2 °C -12.2 °C 34361.1 hPa SW 6 km/h 6 km/h 50 % 0 mm
20:04 -6.2 °C -12.2 °C 34395 hPa SW 6.3 km/h 6.3 km/h 50 % 0 mm
20:05 -9.2 °C -11.9 °C 34496.6 hPa East 7.7 km/h 10.3 km/h 73 % 0 mm
20:09 -6.2 °C -12.2 °C 34395 hPa SW 6 km/h 6 km/h 50 % 0 mm
20:14 -6.2 °C -12.2 °C 34395 hPa SW 6.3 km/h 6.8 km/h 50 % 0 mm
20:15 -9.2 °C -11.9 °C 34496.6 hPa East 7.7 km/h 10.3 km/h 73 % 0 mm
20:19 -6.3 °C -12.3 °C 34395 hPa South 3.1 km/h   50 % 0 mm
20:24 -6.3 °C -12.3 °C 34395 hPa SW 8 km/h 8 km/h 50 % 0 mm
20:25 -9.2 °C -12 °C 34496.6 hPa ENE 5.1 km/h 10.3 km/h 72 % 0 mm
20:29 -6.4 °C -12.3 °C 34395 hPa SE 6 km/h 6 km/h 51 % 0 mm
20:34 -6.5 °C -12.3 °C 34395 hPa SE 6 km/h 6 km/h 51 % 0 mm
20:35 -9.2 °C -12 °C 34496.6 hPa ENE 5.1 km/h 5.1 km/h 72 % 0 mm
20:39 -6.5 °C -12.3 °C 34395 hPa Calm     51 % 0 mm
20:44 -6.5 °C -12.3 °C 34395 hPa NE 11.9 km/h 11.9 km/h 51 % 0 mm
20:49 -6.7 °C -12.4 °C 34395 hPa ESE 17.9 km/h 17.9 km/h 51 % 0 mm
20:54 -6.8 °C -12.4 °C 34395 hPa ESE 15 km/h 15 km/h 52 % 0 mm
20:55 -9.3 °C -12.1 °C 34496.6 hPa ENE 2.6 km/h 7.7 km/h 72 % 0 mm
20:59 -6.8 °C -12.4 °C 34395 hPa East 15 km/h 15 km/h 52 % 0 mm
21:04 -6.9 °C -12.6 °C 34395 hPa NNE 9 km/h 9 km/h 52 % 0 mm
21:05 -9.5 °C -12.2 °C 34496.6 hPa ENE 7.7 km/h 7.7 km/h 73 % 0 mm
21:09 -6.9 °C -12.4 °C 34395 hPa ENE 11.9 km/h 11.9 km/h 53 % 0 mm
21:14 -7.1 °C -12.3 °C 34395 hPa ENE 6.3 km/h 6.3 km/h 54 % 0 mm
21:15 -9.6 °C -12.2 °C 34496.6 hPa NE 5.1 km/h 10.3 km/h 73 % 0 mm
21:19 -7.2 °C -12.3 °C 34395 hPa ENE 17.9 km/h 17.9 km/h 55 % 0 mm
21:24 -7.2 °C -12.2 °C 34395 hPa NE 15 km/h 15 km/h 56 % 0 mm
21:25 -9.5 °C -12.2 °C 34496.6 hPa NE 7.7 km/h 7.7 km/h 73 % 0 mm
21:29 -7.3 °C -12.1 °C 34395 hPa ENE 15 km/h 15 km/h 58 % 0 mm
21:34 -7.3 °C -11.9 °C 34395 hPa ESE 17.9 km/h 17.9 km/h 59 % 0 mm
21:35 -9.5 °C -12.2 °C 34496.6 hPa NE 5.1 km/h 10.3 km/h 73 % 0 mm
21:39 -7.4 °C -11.9 °C 34395 hPa ESE 9.3 km/h 9.3 km/h 59 % 0 mm
21:44 -7.4 °C -11.7 °C 34395 hPa East 15 km/h 15 km/h 61 % 0 mm
21:45 -9.6 °C -12.2 °C 34496.6 hPa NE 5.1 km/h 5.1 km/h 73 % 0 mm
21:49 -7.5 °C -11.8 °C 34395 hPa East 6.3 km/h 9.3 km/h 61 % 0 mm
21:54 -7.6 °C -11.7 °C 34395 hPa ENE 17.9 km/h 17.9 km/h 62 % 0 mm
21:55 -9.6 °C -12.3 °C 34496.6 hPa NE 5.1 km/h 5.1 km/h 73 % 0 mm
21:59 -7.7 °C -11.7 °C 34395 hPa ENE 15 km/h 15 km/h 63 % 0 mm
22:04 -7.8 °C -11.6 °C 34428.8 hPa East 17.9 km/h 17.9 km/h 65 % 0 mm
22:05 -9.6 °C -12.2 °C 34496.6 hPa NE 5.1 km/h 7.7 km/h 74 % 0 mm
22:09 -7.9 °C -11.5 °C 34428.8 hPa ESE 9 km/h 9 km/h 66 % 0 mm
22:14 -8 °C -11.3 °C 34428.8 hPa ESE 7.6 km/h 7.6 km/h 68 % 0 mm
22:15 -9.7 °C -12.2 °C 34496.6 hPa NE 5.1 km/h 7.7 km/h 74 % 0 mm
22:19 -8 °C -11.3 °C 34462.7 hPa ESE 7.6 km/h 7.6 km/h 68 % 0 mm
22:24 -8.1 °C -11.4 °C 34462.7 hPa ESE 7.6 km/h 7.6 km/h 68 % 0 mm
22:25 -9.7 °C -12.3 °C 34496.6 hPa NE 2.6 km/h 7.7 km/h 74 % 0 mm
22:29 -8.1 °C -11.4 °C 34462.7 hPa ESE 7.6 km/h 7.6 km/h 68 % 0 mm
22:34 -8.2 °C -11.5 °C 34462.7 hPa ESE 7.6 km/h 7.6 km/h 68 % 0 mm
22:35 -9.8 °C -12.3 °C 34496.6 hPa Calm   2.6 km/h 74 % 0 mm
22:39 -8.2 °C -11.4 °C 34462.7 hPa ESE 7.6 km/h 7.6 km/h 69 % 0 mm
22:44 -8.2 °C -11.4 °C 34462.7 hPa ESE 7.6 km/h 7.6 km/h 69 % 0 mm
22:45 -9.8 °C -12.4 °C 34496.6 hPa Calm   2.6 km/h 74 % 0 mm
22:49 -8.2 °C -11.4 °C 34462.7 hPa ESE 7.6 km/h 7.6 km/h 69 % 0 mm
22:54 -8.3 °C -11.2 °C 34462.7 hPa ESE 7.6 km/h 7.6 km/h 71 % 0 mm
22:55 -9.9 °C -12.6 °C 34496.6 hPa Calm     73 % 0 mm
22:59 -8.2 °C -11.3 °C 34462.7 hPa ESE 7.6 km/h 7.6 km/h 70 % 0 mm
23:04 -8.2 °C -11.3 °C 34462.7 hPa East 15 km/h 15 km/h 70 % 0 mm
23:05 -10 °C -12.6 °C 34496.6 hPa Calm     74 % 0 mm
23:09 -8.3 °C -11.2 °C 34462.7 hPa East 15 km/h 15 km/h 71 % 0 mm
23:14 -8.3 °C -11.2 °C 34462.7 hPa East 15 km/h 15 km/h 71 % 0 mm
23:15 -10 °C -12.6 °C 34496.6 hPa North 2.6 km/h 5.1 km/h 74 % 0 mm
23:20 -8.3 °C -11.2 °C 34462.7 hPa East 15 km/h 15 km/h 71 % 0 mm
23:25 -8.3 °C -11.2 °C 34462.7 hPa East 15 km/h 15 km/h 71 % 0 mm
23:35 -8.6 °C -11.3 °C 34496.6 hPa ESE 11.9 km/h 11.9 km/h 73 % 0 mm
23:40 -8.7 °C -11.5 °C 34496.6 hPa ENE 9 km/h 9 km/h 72 % 0 mm
23:45 -8.8 °C -11.6 °C 34496.6 hPa East 9 km/h 9 km/h 72 % 0 mm
23:50 -8.8 °C -11.5 °C 34496.6 hPa East 9 km/h 9 km/h 73 % 0 mm
23:55 -10.6 °C -12.8 °C 34496.6 hPa Calm   5.1 km/h 76 % 0 mm
Meteo Sesrovires
Elogis d' Weather Underground - 2 mb

Guio original per  Jim McMurry - jmcmurry@mwt.net Adaptat per a la plantilla per  Wim van der Kuil - Leuven-Template.eu

Trobareu la nostra informacio del temps tambe a:

Weather Underground

AWEKAS